createdAt,value
2018-09-17T00:01:12.968Z,14.90
2018-09-17T00:03:40.915Z,14.90
2018-09-17T00:06:09.315Z,14.90
2018-09-17T00:08:37.361Z,14.90
2018-09-17T00:11:05.375Z,14.90
2018-09-17T00:13:33.468Z,14.80
2018-09-17T00:16:01.435Z,14.80
2018-09-17T00:18:29.799Z,14.70
2018-09-17T00:20:57.901Z,14.70
2018-09-17T00:23:26.789Z,14.70
2018-09-17T00:25:54.805Z,14.70
2018-09-17T00:28:22.869Z,14.70
2018-09-17T00:30:51.605Z,14.80
2018-09-17T00:33:19.609Z,15.00
2018-09-17T00:35:47.565Z,14.80
2018-09-17T00:38:15.650Z,14.80
2018-09-17T00:40:43.684Z,14.80
2018-09-17T00:43:11.687Z,15.00
2018-09-17T00:45:39.616Z,15.00
2018-09-17T00:48:07.681Z,15.00
2018-09-17T00:50:36.190Z,14.90
2018-09-17T00:53:04.156Z,15.00
2018-09-17T00:55:32.183Z,15.00
2018-09-17T00:58:00.282Z,15.00
2018-09-17T01:00:29.273Z,15.00
2018-09-17T01:02:57.328Z,15.00
2018-09-17T01:05:26.118Z,15.00
2018-09-17T01:07:54.137Z,15.00
2018-09-17T01:10:22.133Z,15.10
2018-09-17T01:12:50.183Z,15.00
2018-09-17T01:15:18.145Z,15.00
2018-09-17T01:17:46.194Z,15.00
2018-09-17T01:20:15.093Z,15.10
2018-09-17T01:22:43.231Z,15.30
2018-09-17T01:25:11.370Z,15.20
2018-09-17T01:27:39.480Z,15.20
2018-09-17T01:30:07.472Z,15.20
2018-09-17T01:32:35.527Z,15.40
2018-09-17T01:35:03.674Z,15.40
2018-09-17T01:37:31.597Z,15.40
2018-09-17T01:39:59.581Z,15.20
2018-09-17T01:42:27.596Z,15.20
2018-09-17T01:44:55.709Z,15.10
2018-09-17T01:47:23.672Z,15.30
2018-09-17T01:49:51.702Z,15.40
2018-09-17T01:52:19.666Z,15.30
2018-09-17T01:54:48.116Z,15.40
2018-09-17T01:57:16.258Z,15.30
2018-09-17T01:59:44.305Z,15.20
2018-09-17T02:02:12.357Z,15.10
2018-09-17T02:04:40.316Z,15.00
2018-09-17T02:07:08.516Z,15.00
2018-09-17T02:09:41.121Z,15.00
2018-09-17T02:12:10.951Z,14.90
2018-09-17T02:14:39.437Z,14.90
2018-09-17T02:17:07.605Z,14.80
2018-09-17T02:19:35.939Z,14.70
2018-09-17T02:22:03.988Z,14.60
2018-09-17T02:24:32.005Z,14.60
2018-09-17T02:27:00.053Z,14.60
2018-09-17T02:29:28.077Z,14.60
2018-09-17T02:31:56.053Z,14.60
2018-09-17T02:34:24.204Z,14.70
2018-09-17T02:36:52.491Z,14.90
2018-09-17T02:39:20.589Z,14.90
2018-09-17T02:41:48.612Z,14.70
2018-09-17T02:44:16.844Z,14.50
2018-09-17T02:46:44.828Z,14.50
2018-09-17T02:49:13.614Z,14.60
2018-09-17T02:51:42.223Z,14.60
2018-09-17T02:54:10.204Z,14.70
2018-09-17T02:56:38.202Z,14.70
2018-09-17T02:59:06.345Z,14.60
2018-09-17T03:01:35.391Z,14.50
2018-09-17T03:04:03.357Z,14.60
2018-09-17T03:06:31.756Z,14.40
2018-09-17T03:09:00.686Z,14.30
2018-09-17T03:11:28.761Z,14.30
2018-09-17T03:13:56.737Z,14.30
2018-09-17T03:16:24.676Z,14.40
2018-09-17T03:18:55.004Z,14.50
2018-09-17T03:21:22.945Z,14.40
2018-09-17T03:23:51.017Z,14.40
2018-09-17T03:26:19.422Z,14.30
2018-09-17T03:28:47.448Z,14.30
2018-09-17T03:31:15.450Z,14.20
2018-09-17T03:33:43.450Z,14.10
2018-09-17T03:36:11.479Z,14.00
2018-09-17T03:38:46.452Z,13.90
2018-09-17T03:41:15.013Z,14.00
2018-09-17T03:43:44.713Z,13.90
2018-09-17T03:46:12.758Z,13.90
2018-09-17T03:48:41.894Z,14.00
2018-09-17T03:51:10.758Z,14.00
2018-09-17T03:53:38.988Z,13.90
2018-09-17T03:56:07.085Z,13.90
2018-09-17T03:58:35.972Z,13.80
2018-09-17T04:01:04.289Z,13.70
2018-09-17T04:03:32.288Z,13.70
2018-09-17T04:06:00.310Z,13.70
2018-09-17T04:08:30.904Z,13.70
2018-09-17T04:10:58.924Z,13.60
2018-09-17T04:13:26.981Z,13.60
2018-09-17T04:15:55.060Z,13.60
2018-09-17T04:18:23.153Z,13.50
2018-09-17T04:20:51.065Z,13.60
2018-09-17T04:23:24.491Z,13.60
2018-09-17T04:25:52.617Z,13.60
2018-09-17T04:28:20.645Z,13.60
2018-09-17T04:30:48.702Z,13.50
2018-09-17T04:33:16.806Z,13.50
2018-09-17T04:35:44.869Z,13.40
2018-09-17T04:38:13.061Z,13.50
2018-09-17T04:40:41.111Z,13.50
2018-09-17T04:43:09.159Z,13.30
2018-09-17T04:45:37.580Z,13.30
2018-09-17T04:48:05.789Z,13.30
2018-09-17T04:50:33.972Z,13.30
2018-09-17T04:53:02.134Z,13.40
2018-09-17T04:55:30.549Z,13.60
2018-09-17T04:57:59.164Z,13.60
2018-09-17T05:00:27.259Z,13.50
2018-09-17T05:02:55.301Z,13.50
2018-09-17T05:05:23.347Z,13.40
2018-09-17T05:07:51.457Z,13.40
2018-09-17T05:10:19.492Z,13.50
2018-09-17T05:12:47.737Z,13.50
2018-09-17T05:15:15.771Z,13.50
2018-09-17T05:17:43.692Z,13.50
2018-09-17T05:20:11.812Z,13.50
2018-09-17T05:22:39.856Z,13.60
2018-09-17T05:25:08.357Z,13.60
2018-09-17T05:27:36.776Z,13.60
2018-09-17T05:30:05.940Z,13.60
2018-09-17T05:32:34.329Z,13.60
2018-09-17T05:35:02.570Z,13.70
2018-09-17T05:37:30.822Z,13.80
2018-09-17T05:39:58.980Z,13.90
2018-09-17T05:42:27.246Z,13.90
2018-09-17T05:44:55.248Z,13.80
2018-09-17T05:47:23.275Z,13.80
2018-09-17T05:49:52.945Z,13.70
2018-09-17T05:52:21.104Z,13.70
2018-09-17T05:54:49.872Z,13.80
2018-09-17T05:57:17.905Z,13.80
2018-09-17T05:59:45.952Z,13.80
2018-09-17T06:02:14.013Z,13.90
2018-09-17T06:04:42.116Z,14.00
2018-09-17T06:07:10.098Z,13.90
2018-09-17T06:09:38.221Z,14.00
2018-09-17T06:12:06.332Z,14.00
2018-09-17T06:14:34.579Z,14.20
2018-09-17T06:17:02.617Z,14.20
2018-09-17T06:19:30.778Z,14.30
2018-09-17T06:21:58.840Z,14.50
2018-09-17T06:24:27.154Z,14.60
2018-09-17T06:26:55.272Z,14.70
2018-09-17T06:29:23.377Z,14.90
2018-09-17T06:31:51.509Z,15.00
2018-09-17T06:34:19.497Z,15.10
2018-09-17T06:36:48.522Z,15.20
2018-09-17T06:39:16.728Z,15.30
2018-09-17T06:41:44.817Z,15.50
2018-09-17T06:44:13.336Z,15.50
2018-09-17T06:46:41.515Z,15.70
2018-09-17T06:49:10.645Z,15.80
2018-09-17T06:51:39.805Z,15.80
2018-09-17T06:54:07.913Z,15.90
2018-09-17T06:56:35.860Z,16.00
2018-09-17T06:59:03.928Z,16.10
2018-09-17T07:01:31.982Z,16.20
2018-09-17T07:04:00.005Z,16.30
2018-09-17T07:06:28.700Z,16.40
2018-09-17T07:08:56.760Z,16.50
2018-09-17T07:11:24.800Z,16.60
2018-09-17T07:13:53.772Z,16.70
2018-09-17T07:16:21.872Z,16.80
2018-09-17T07:18:50.936Z,16.90
2018-09-17T07:21:18.953Z,17.00
2018-09-17T07:23:46.918Z,17.10
2018-09-17T07:26:15.082Z,17.20
2018-09-17T07:28:43.189Z,17.20
2018-09-17T07:31:11.201Z,17.30
2018-09-17T07:33:39.288Z,17.40
2018-09-17T07:36:07.374Z,17.50
2018-09-17T07:38:35.566Z,17.60
2018-09-17T07:41:03.649Z,17.80
2018-09-17T07:43:31.739Z,17.90
2018-09-17T07:45:59.789Z,18.00
2018-09-17T07:48:27.924Z,18.10
2018-09-17T07:50:56.244Z,18.20
2018-09-17T07:53:24.405Z,18.30
2018-09-17T07:55:52.405Z,18.50
2018-09-17T07:58:20.449Z,18.70
2018-09-17T08:00:48.620Z,18.70
2018-09-17T08:03:16.617Z,18.80
2018-09-17T08:05:44.875Z,18.90
2018-09-17T08:08:12.814Z,18.90
2018-09-17T08:10:40.899Z,19.00
2018-09-17T08:13:08.928Z,19.10
2018-09-17T08:15:36.996Z,19.30
2018-09-17T08:18:05.117Z,19.40
2018-09-17T08:20:33.175Z,19.50
2018-09-17T08:23:01.164Z,19.60
2018-09-17T08:25:29.323Z,19.70
2018-09-17T08:27:57.372Z,19.80
2018-09-17T08:30:25.500Z,19.90
2018-09-17T08:32:53.611Z,20.00
2018-09-17T08:35:21.716Z,19.90
2018-09-17T08:37:49.756Z,20.00
2018-09-17T08:40:17.721Z,20.10
2018-09-17T08:42:46.389Z,20.30
2018-09-17T08:45:15.870Z,20.30
2018-09-17T08:47:43.828Z,20.40
2018-09-17T08:50:14.853Z,20.60
2018-09-17T08:52:44.204Z,20.60
2018-09-17T08:55:16.631Z,20.70
2018-09-17T08:59:54.626Z,20.70
2018-09-17T09:02:28.164Z,20.90
2018-09-17T09:05:00.678Z,21.00
2018-09-17T09:07:31.157Z,21.10
2018-09-17T09:10:04.588Z,21.20
2018-09-17T09:12:38.480Z,21.20
2018-09-17T09:15:12.182Z,21.30
2018-09-17T09:17:40.291Z,21.30
2018-09-17T09:20:08.514Z,21.40
2018-09-17T09:22:36.601Z,21.60
2018-09-17T09:25:04.841Z,21.70
2018-09-17T09:27:32.951Z,21.80
2018-09-17T09:30:00.918Z,21.80
2018-09-17T09:32:28.907Z,21.90
2018-09-17T09:34:56.908Z,22.00
2018-09-17T09:37:25.149Z,22.20
2018-09-17T09:39:53.124Z,22.40
2018-09-17T09:42:21.153Z,22.50
2018-09-17T09:44:50.046Z,22.50
2018-09-17T09:47:17.994Z,22.70
2018-09-17T09:49:46.047Z,22.70
2018-09-17T09:52:14.998Z,22.80
2018-09-17T09:54:43.150Z,22.80
2018-09-17T09:57:11.250Z,22.80
2018-09-17T09:59:39.548Z,22.90
2018-09-17T10:02:13.041Z,23.10
2018-09-17T10:04:41.020Z,23.10
2018-09-17T10:07:09.039Z,23.10
2018-09-17T10:09:42.424Z,23.20
2018-09-17T10:12:16.077Z,23.30
2018-09-17T10:14:49.773Z,23.40
2018-09-17T10:17:23.309Z,23.40
2018-09-17T10:19:52.280Z,23.50
2018-09-17T10:22:20.735Z,23.50
2018-09-17T10:24:48.834Z,23.70
2018-09-17T10:27:17.529Z,23.60
2018-09-17T10:29:46.220Z,23.70
2018-09-17T10:32:14.444Z,23.80
2018-09-17T10:34:42.798Z,24.00
2018-09-17T10:37:11.360Z,24.00
2018-09-17T10:39:39.428Z,24.00
2018-09-17T10:42:07.541Z,24.00
2018-09-17T10:44:35.722Z,24.10
2018-09-17T10:47:04.350Z,24.10
2018-09-17T10:49:32.308Z,24.00
2018-09-17T10:52:00.986Z,24.30
2018-09-17T10:54:29.028Z,24.40
2018-09-17T10:56:57.017Z,24.40
2018-09-17T10:59:25.046Z,24.50
2018-09-17T11:01:53.121Z,24.70
2018-09-17T11:04:21.132Z,24.80
2018-09-17T11:06:49.117Z,24.80
2018-09-17T11:09:17.083Z,24.80
2018-09-17T11:11:46.061Z,24.90
2018-09-17T11:14:14.050Z,24.90
2018-09-17T11:16:42.044Z,24.80
2018-09-17T11:19:10.000Z,24.90
2018-09-17T11:21:38.512Z,25.00
2018-09-17T11:24:07.167Z,24.70
2018-09-17T11:26:35.206Z,24.70
2018-09-17T11:29:03.253Z,24.70
2018-09-17T11:31:31.724Z,24.90
2018-09-17T11:34:00.585Z,24.90
2018-09-17T11:36:28.605Z,25.10
2018-09-17T11:38:56.626Z,25.20
2018-09-17T11:41:25.564Z,25.30
2018-09-17T11:43:53.657Z,25.50
2018-09-17T11:46:21.666Z,25.50
2018-09-17T11:48:49.727Z,25.60
2018-09-17T11:51:17.877Z,25.70
2018-09-17T11:53:45.912Z,25.80
2018-09-17T11:56:13.893Z,25.90
2018-09-17T11:58:41.893Z,25.90
2018-09-17T12:01:15.265Z,26.00
2018-09-17T12:03:49.019Z,26.10
2018-09-17T12:06:23.497Z,26.10
2018-09-17T12:08:51.564Z,26.20
2018-09-17T12:11:19.652Z,26.10
2018-09-17T12:13:47.606Z,26.30
2018-09-17T12:16:15.793Z,26.50
2018-09-17T12:18:44.624Z,26.60
2018-09-17T12:21:12.638Z,26.60
2018-09-17T12:23:40.714Z,26.50
2018-09-17T12:26:08.847Z,26.60
2018-09-17T12:28:36.920Z,26.70
2018-09-17T12:31:04.941Z,26.80
2018-09-17T12:33:34.225Z,26.80
2018-09-17T12:36:02.289Z,26.80
2018-09-17T12:38:30.438Z,26.90
2018-09-17T12:40:58.456Z,26.90
2018-09-17T12:43:26.558Z,27.00
2018-09-17T12:45:54.728Z,26.90
2018-09-17T12:48:22.865Z,26.90
2018-09-17T12:50:51.987Z,26.90
2018-09-17T12:53:20.089Z,26.80
2018-09-17T12:55:48.317Z,26.50
2018-09-17T12:58:16.553Z,26.40
2018-09-17T13:00:44.697Z,26.30
2018-09-17T13:03:12.819Z,26.40
2018-09-17T13:05:40.905Z,26.60
2018-09-17T13:08:08.960Z,26.80
2018-09-17T13:10:36.929Z,26.90
2018-09-17T13:13:04.945Z,27.10
2018-09-17T13:15:36.385Z,27.30
2018-09-17T13:18:04.474Z,27.40
2018-09-17T13:20:32.473Z,27.60
2018-09-17T13:23:00.641Z,27.60
2018-09-17T13:25:29.517Z,27.60
2018-09-17T13:27:57.532Z,27.80
2018-09-17T13:30:25.606Z,27.80
2018-09-17T13:32:53.705Z,27.80
2018-09-17T13:35:21.933Z,27.70
2018-09-17T13:37:49.996Z,27.90
2018-09-17T13:42:46.177Z,28.20
2018-09-17T13:45:14.309Z,28.70
2018-09-17T13:47:42.316Z,29.00
2018-09-17T13:50:10.425Z,29.40
2018-09-17T13:52:38.412Z,29.60
2018-09-17T13:55:06.453Z,29.60
2018-09-17T13:57:34.662Z,30.00
2018-09-17T14:00:02.942Z,30.30
2018-09-17T14:02:31.048Z,30.70
2018-09-17T14:07:26.766Z,31.10
2018-09-17T14:09:55.176Z,31.50
2018-09-17T14:12:23.165Z,31.90
2018-09-17T14:14:51.728Z,32.30
2018-09-17T14:17:20.858Z,32.50
2018-09-17T14:19:48.833Z,32.50
2018-09-17T14:22:16.872Z,32.30
2018-09-17T14:24:44.923Z,32.30
2018-09-17T14:27:14.279Z,32.60
2018-09-17T14:29:42.847Z,32.80
2018-09-17T14:32:16.636Z,32.80
2018-09-17T14:34:44.775Z,32.50
2018-09-17T14:37:12.853Z,32.50
2018-09-17T14:39:40.921Z,32.60
2018-09-17T14:42:08.864Z,32.60
2018-09-17T14:44:36.823Z,32.40
2018-09-17T14:47:04.810Z,32.70
2018-09-17T14:49:33.356Z,32.90
2018-09-17T14:52:01.387Z,32.80
2018-09-17T14:54:29.471Z,33.00
2018-09-17T14:56:57.606Z,33.00
2018-09-17T14:59:25.633Z,33.00
2018-09-17T15:01:54.344Z,32.90
2018-09-17T15:04:22.505Z,32.90
2018-09-17T15:06:50.509Z,32.90
2018-09-17T15:09:18.560Z,32.80
2018-09-17T15:11:47.171Z,32.70
2018-09-17T15:14:15.628Z,32.60
2018-09-17T15:16:43.679Z,32.60
2018-09-17T15:19:12.173Z,32.70
2018-09-17T15:21:40.175Z,32.80
2018-09-17T15:24:08.319Z,32.80
2018-09-17T15:26:36.689Z,32.90
2018-09-17T15:29:04.762Z,33.10
2018-09-17T15:31:32.737Z,33.30
2018-09-17T15:34:01.214Z,33.60
2018-09-17T15:36:29.287Z,33.50
2018-09-17T15:38:58.389Z,33.50
2018-09-17T15:41:26.561Z,33.50
2018-09-17T15:43:55.376Z,33.40
2018-09-17T15:46:23.489Z,33.40
2018-09-17T15:48:51.391Z,33.20
2018-09-17T15:51:19.388Z,33.20
2018-09-17T15:53:47.476Z,33.30
2018-09-17T15:56:15.590Z,33.30
2018-09-17T15:58:43.581Z,33.00
2018-09-17T16:01:11.778Z,33.10
2018-09-17T16:03:39.774Z,33.30
2018-09-17T16:06:07.687Z,33.30
2018-09-17T16:08:35.962Z,33.40
2018-09-17T16:11:03.888Z,33.30
2018-09-17T16:13:32.392Z,33.30
2018-09-17T16:16:01.001Z,33.20
2018-09-17T16:18:29.028Z,33.10
2018-09-17T16:20:57.292Z,33.00
2018-09-17T16:23:25.257Z,32.80
2018-09-17T16:25:53.382Z,32.70
2018-09-17T16:28:23.013Z,32.70
2018-09-17T16:30:51.305Z,32.60
2018-09-17T16:33:19.404Z,32.50
2018-09-17T16:35:47.438Z,32.10
2018-09-17T16:38:15.440Z,32.00
2018-09-17T16:40:43.588Z,31.80
2018-09-17T16:43:11.701Z,31.80
2018-09-17T16:45:39.692Z,31.60
2018-09-17T16:48:07.718Z,31.40
2018-09-17T16:50:36.040Z,31.20
2018-09-17T16:53:04.158Z,30.90
2018-09-17T16:55:32.664Z,30.70
2018-09-17T16:58:00.725Z,30.50
2018-09-17T17:00:28.646Z,30.20
2018-09-17T17:02:56.752Z,29.90
2018-09-17T17:05:25.345Z,29.60
2018-09-17T17:07:53.670Z,29.60
2018-09-17T17:10:21.681Z,29.40
2018-09-17T17:12:50.523Z,29.20
2018-09-17T17:15:18.841Z,28.90
2018-09-17T17:17:46.886Z,28.70
2018-09-17T17:20:15.465Z,28.30
2018-09-17T17:22:43.437Z,28.10
2018-09-17T17:25:11.450Z,28.00
2018-09-17T17:27:39.813Z,27.70
2018-09-17T17:30:07.955Z,27.30
2018-09-17T17:32:36.114Z,27.00
2018-09-17T17:35:04.206Z,26.80
2018-09-17T17:37:32.630Z,26.60
2018-09-17T17:40:00.696Z,26.40
2018-09-17T17:42:28.667Z,26.10
2018-09-17T17:44:56.905Z,25.80
2018-09-17T17:47:24.961Z,25.50
2018-09-17T17:49:53.227Z,25.40
2018-09-17T17:52:21.313Z,25.30
2018-09-17T17:54:49.303Z,25.10
2018-09-17T17:57:17.236Z,24.90
2018-09-17T17:59:45.988Z,24.70
2018-09-17T18:02:14.003Z,24.40
2018-09-17T18:04:42.598Z,24.30
2018-09-17T18:07:10.645Z,24.30
2018-09-17T18:09:38.991Z,24.30
2018-09-17T18:12:07.094Z,24.10
2018-09-17T18:14:35.644Z,23.80
2018-09-17T18:17:03.590Z,23.50
2018-09-17T18:19:31.647Z,23.20
2018-09-17T18:21:59.767Z,22.90
2018-09-17T18:24:28.008Z,22.70
2018-09-17T18:26:56.237Z,22.60
2018-09-17T18:31:52.217Z,22.30
2018-09-17T18:34:20.273Z,22.20
2018-09-17T18:36:48.310Z,22.00
2018-09-17T18:39:16.331Z,21.70
2018-09-17T18:41:44.435Z,21.60
2018-09-17T18:44:13.074Z,21.50
2018-09-17T18:46:41.039Z,21.40
2018-09-17T18:49:09.123Z,21.30
2018-09-17T18:51:37.121Z,21.20
2018-09-17T18:54:05.268Z,21.10
2018-09-17T18:56:33.389Z,20.90
2018-09-17T18:59:02.245Z,20.80
2018-09-17T19:01:30.457Z,20.70
2018-09-17T19:03:58.549Z,20.60
2018-09-17T19:06:26.611Z,20.50
2018-09-17T19:08:55.770Z,20.10
2018-09-17T19:11:23.909Z,20.10
2018-09-17T19:13:57.520Z,20.10
2018-09-17T19:16:32.149Z,20.10
2018-09-17T19:19:00.251Z,20.20
2018-09-17T19:21:34.115Z,20.20
2018-09-17T19:24:04.946Z,20.20
2018-09-17T19:26:33.025Z,20.20
2018-09-17T19:29:06.454Z,20.10
2018-09-17T19:31:34.810Z,20.00
2018-09-17T19:34:02.831Z,19.90
2018-09-17T19:36:30.985Z,19.80
2018-09-17T19:39:04.645Z,19.70
2018-09-17T19:41:32.651Z,19.60
2018-09-17T19:44:00.916Z,19.60
2018-09-17T19:46:28.900Z,19.40
2018-09-17T19:48:56.928Z,19.40
2018-09-17T19:51:31.526Z,19.40
2018-09-17T19:54:00.340Z,19.40
2018-09-17T19:56:28.601Z,19.30
2018-09-17T19:59:02.124Z,19.30
2018-09-17T20:01:30.456Z,19.20
2018-09-17T20:04:02.884Z,19.10
2018-09-17T20:06:31.013Z,19.00
2018-09-17T20:08:58.941Z,18.90
2018-09-17T20:11:27.075Z,18.80
2018-09-17T20:13:55.786Z,18.70
2018-09-17T20:16:24.111Z,18.60
2018-09-17T20:18:52.061Z,18.60
2018-09-17T20:21:20.648Z,18.60
2018-09-17T20:23:48.784Z,18.70
2018-09-17T20:26:16.832Z,18.60
2018-09-17T20:28:45.068Z,18.60
2018-09-17T20:31:13.069Z,18.40
2018-09-17T20:33:41.105Z,18.50
2018-09-17T20:36:09.256Z,18.40
2018-09-17T20:38:38.300Z,18.30
2018-09-17T20:41:06.257Z,18.20
2018-09-17T20:43:40.222Z,18.10
2018-09-17T20:46:08.321Z,18.00
2018-09-17T20:48:38.045Z,17.90
2018-09-17T20:51:06.815Z,17.90
2018-09-17T20:53:35.829Z,17.90
2018-09-17T20:56:04.325Z,17.80
2018-09-17T20:58:32.423Z,17.70
2018-09-17T21:01:00.577Z,17.70
2018-09-17T21:03:28.502Z,17.60
2018-09-17T21:05:56.481Z,17.60
2018-09-17T21:08:24.528Z,17.50
2018-09-17T21:10:52.551Z,17.60
2018-09-17T21:13:20.726Z,17.50
2018-09-17T21:15:48.788Z,17.50
2018-09-17T21:18:17.048Z,17.40
2018-09-17T21:20:45.981Z,17.40
2018-09-17T21:23:14.082Z,17.30
2018-09-17T21:25:42.672Z,17.40
2018-09-17T21:28:10.672Z,17.40
2018-09-17T21:30:38.650Z,17.30
2018-09-17T21:33:06.640Z,17.20
2018-09-17T21:35:34.730Z,17.20
2018-09-17T21:38:02.828Z,17.20
2018-09-17T21:40:30.814Z,17.30
2018-09-17T21:42:58.876Z,17.40
2018-09-17T21:45:26.944Z,17.40
2018-09-17T21:47:54.945Z,17.40
2018-09-17T21:50:23.398Z,17.40
2018-09-17T21:52:51.613Z,17.40
2018-09-17T21:55:19.586Z,17.30
2018-09-17T21:57:48.501Z,17.20
2018-09-17T22:00:17.253Z,17.30
2018-09-17T22:02:45.304Z,17.40
2018-09-17T22:05:14.177Z,17.40
2018-09-17T22:07:42.198Z,17.40
2018-09-17T22:10:10.315Z,17.30
2018-09-17T22:12:38.328Z,17.40
2018-09-17T22:15:06.347Z,17.50
2018-09-17T22:17:34.296Z,17.50
2018-09-17T22:20:02.905Z,17.50
2018-09-17T22:22:30.833Z,17.30
2018-09-17T22:24:58.830Z,17.10
2018-09-17T22:27:27.591Z,17.00
2018-09-17T22:29:55.530Z,17.10
2018-09-17T22:32:23.472Z,17.00
2018-09-17T22:34:51.506Z,17.00
2018-09-17T22:37:19.478Z,17.10
2018-09-17T22:39:48.032Z,17.10
2018-09-17T22:42:16.315Z,17.00
2018-09-17T22:44:44.185Z,17.10
2018-09-17T22:47:13.112Z,17.10
2018-09-17T22:49:41.125Z,17.10
2018-09-17T22:52:09.879Z,17.10
2018-09-17T22:54:37.907Z,17.10
2018-09-17T22:57:06.103Z,17.00
2018-09-17T22:59:34.085Z,17.00
2018-09-17T23:02:02.165Z,16.90
2018-09-17T23:04:30.212Z,16.90
2018-09-17T23:06:58.448Z,16.90
2018-09-17T23:09:26.453Z,16.80
2018-09-17T23:11:54.438Z,16.70
2018-09-17T23:14:22.556Z,16.50
2018-09-17T23:16:50.581Z,16.40
2018-09-17T23:19:19.506Z,16.40
2018-09-17T23:21:47.484Z,16.40
2018-09-17T23:24:15.533Z,16.40
2018-09-17T23:26:43.586Z,16.50
2018-09-17T23:29:11.548Z,16.40
2018-09-17T23:31:39.641Z,16.40
2018-09-17T23:34:07.724Z,16.30
2018-09-17T23:36:35.704Z,16.20
2018-09-17T23:39:06.136Z,16.10
2018-09-17T23:41:34.096Z,16.10
2018-09-17T23:44:02.284Z,16.00
2018-09-17T23:46:30.334Z,15.90
2018-09-17T23:48:58.508Z,16.00
2018-09-17T23:51:26.521Z,16.00
2018-09-17T23:53:54.552Z,16.00
2018-09-17T23:56:22.629Z,16.00
2018-09-17T23:58:50.772Z,15.90
